createdAt,value
2018-08-09T00:01:29.349Z,66.90
2018-08-09T00:03:58.092Z,66.80
2018-08-09T00:06:26.813Z,66.60
2018-08-09T00:08:55.559Z,66.60
2018-08-09T00:11:24.525Z,66.30
2018-08-09T00:13:53.291Z,66.20
2018-08-09T00:16:22.195Z,66.30
2018-08-09T00:18:50.899Z,66.30
2018-08-09T00:21:19.925Z,66.30
2018-08-09T00:23:48.732Z,65.60
2018-08-09T00:26:17.421Z,65.80
2018-08-09T00:28:46.169Z,66.00
2018-08-09T00:31:14.921Z,65.90
2018-08-09T00:33:43.673Z,65.70
2018-08-09T00:36:12.424Z,65.50
2018-08-09T00:38:41.148Z,65.10
2018-08-09T00:41:10.471Z,65.20
2018-08-09T00:43:40.270Z,65.10
2018-08-09T00:46:09.139Z,65.30
2018-08-09T00:48:37.893Z,66.50
2018-08-09T00:51:06.619Z,67.20
2018-08-09T00:53:35.409Z,67.80
2018-08-09T00:56:04.225Z,67.80
2018-08-09T00:58:32.945Z,67.60
2018-08-09T01:01:01.735Z,67.30
2018-08-09T01:03:30.497Z,67.20
2018-08-09T01:05:59.243Z,67.00
2018-08-09T01:08:28.005Z,67.00
2018-08-09T01:10:56.814Z,67.00
2018-08-09T01:13:25.582Z,67.00
2018-08-09T01:15:54.378Z,66.90
2018-08-09T01:18:23.142Z,67.00
2018-08-09T01:20:51.873Z,66.80
2018-08-09T01:23:20.645Z,65.80
2018-08-09T01:25:49.390Z,66.30
2018-08-09T01:28:18.143Z,66.20
2018-08-09T01:30:46.948Z,66.00
2018-08-09T01:33:15.676Z,65.90
2018-08-09T01:35:44.410Z,65.90
2018-08-09T01:38:13.216Z,66.10
2018-08-09T01:40:41.984Z,66.10
2018-08-09T01:43:22.209Z,66.00
2018-08-09T01:45:50.930Z,66.30
2018-08-09T01:48:19.684Z,67.00
2018-08-09T01:50:48.389Z,67.10
2018-08-09T01:53:17.152Z,67.20
2018-08-09T01:55:45.891Z,67.10
2018-08-09T01:58:14.590Z,67.60
2018-08-09T02:00:43.375Z,67.40
2018-08-09T02:03:19.426Z,66.90
2018-08-09T02:05:48.143Z,66.60
2018-08-09T02:08:16.892Z,66.80
2018-08-09T02:10:45.638Z,66.40
2018-08-09T02:13:14.353Z,66.40
2018-08-09T02:15:43.089Z,66.50
2018-08-09T02:18:11.801Z,66.30
2018-08-09T02:20:40.599Z,66.30
2018-08-09T02:23:09.299Z,66.10
2018-08-09T02:25:38.037Z,65.80
2018-08-09T02:28:07.056Z,66.30
2018-08-09T02:30:35.810Z,65.70
2018-08-09T02:33:04.540Z,65.70
2018-08-09T02:35:33.520Z,66.00
2018-08-09T02:38:02.253Z,66.50
2018-08-09T02:40:31.096Z,66.60
2018-08-09T02:42:59.819Z,66.50
2018-08-09T02:45:28.570Z,66.80
2018-08-09T02:47:57.282Z,66.70
2018-08-09T02:50:25.983Z,67.40
2018-08-09T02:52:54.737Z,66.70
2018-08-09T02:55:23.424Z,67.00
2018-08-09T02:57:52.192Z,66.90
2018-08-09T03:00:20.938Z,67.90
2018-08-09T03:02:49.640Z,67.40
2018-08-09T03:05:18.433Z,67.50
2018-08-09T03:07:47.200Z,67.70
2018-08-09T03:10:15.922Z,67.60
2018-08-09T03:12:44.648Z,67.50
2018-08-09T03:15:13.437Z,67.40
2018-08-09T03:17:42.214Z,68.20
2018-08-09T03:20:10.900Z,67.80
2018-08-09T03:22:39.765Z,67.80
2018-08-09T03:25:08.479Z,67.60
2018-08-09T03:27:37.202Z,67.80
2018-08-09T03:30:06.452Z,67.70
2018-08-09T03:32:35.311Z,67.80
2018-08-09T03:35:04.042Z,67.60
2018-08-09T03:37:32.960Z,67.70
2018-08-09T03:40:01.708Z,67.90
2018-08-09T03:42:30.480Z,67.70
2018-08-09T03:44:59.206Z,67.80
2018-08-09T03:47:27.916Z,68.10
2018-08-09T03:49:56.642Z,68.20
2018-08-09T03:52:25.376Z,68.00
2018-08-09T03:54:54.120Z,67.50
2018-08-09T03:57:22.862Z,67.30
2018-08-09T03:59:51.597Z,67.20
2018-08-09T04:02:20.318Z,67.20
2018-08-09T04:04:49.089Z,67.10
2018-08-09T04:07:17.789Z,67.30
2018-08-09T04:09:46.489Z,67.20
2018-08-09T04:12:15.209Z,67.10
2018-08-09T04:14:43.945Z,67.10
2018-08-09T04:17:18.025Z,67.30
2018-08-09T04:19:48.381Z,67.30
2018-08-09T04:22:18.791Z,67.30
2018-08-09T04:24:48.287Z,67.50
2018-08-09T04:27:17.213Z,67.80
2018-08-09T04:29:46.102Z,68.00
2018-08-09T04:32:14.826Z,68.10
2018-08-09T04:34:43.589Z,69.10
2018-08-09T04:37:12.351Z,68.70
2018-08-09T04:39:41.067Z,69.00
2018-08-09T04:42:10.081Z,68.90
2018-08-09T04:44:38.931Z,69.10
2018-08-09T04:47:07.689Z,69.00
2018-08-09T04:49:36.412Z,69.70
2018-08-09T04:52:05.349Z,68.90
2018-08-09T04:54:34.077Z,68.70
2018-08-09T04:57:03.211Z,68.10
2018-08-09T04:59:32.116Z,68.40
2018-08-09T05:02:00.865Z,68.30
2018-08-09T05:04:29.555Z,68.10
2018-08-09T05:06:58.296Z,67.80
2018-08-09T05:09:27.149Z,67.60
2018-08-09T05:11:55.899Z,67.60
2018-08-09T05:14:24.620Z,67.80
2018-08-09T05:16:53.590Z,67.90
2018-08-09T05:19:22.336Z,67.60
2018-08-09T05:21:51.091Z,67.70
2018-08-09T05:24:19.862Z,67.40
2018-08-09T05:26:48.664Z,67.20
2018-08-09T05:29:17.553Z,67.00
2018-08-09T05:31:46.267Z,67.10
2018-08-09T05:34:15.247Z,67.30
2018-08-09T05:36:43.948Z,66.80
2018-08-09T05:39:12.815Z,67.10
2018-08-09T05:41:42.044Z,66.80
2018-08-09T05:44:11.017Z,66.90
2018-08-09T05:46:39.777Z,66.60
2018-08-09T05:49:08.531Z,66.70
2018-08-09T05:51:37.285Z,66.80
2018-08-09T05:54:06.040Z,66.60
2018-08-09T05:56:34.971Z,66.50
2018-08-09T05:59:03.742Z,66.50
2018-08-09T06:01:32.471Z,66.50
2018-08-09T06:04:01.211Z,66.20
2018-08-09T06:06:29.981Z,66.20
2018-08-09T06:08:58.747Z,66.20
2018-08-09T06:11:27.498Z,65.90
2018-08-09T06:13:56.283Z,66.20
2018-08-09T06:16:25.005Z,66.60
2018-08-09T06:18:53.739Z,66.60
2018-08-09T06:21:22.471Z,66.60
2018-08-09T06:23:51.189Z,66.70
2018-08-09T06:26:20.388Z,66.50
2018-08-09T06:28:49.220Z,66.70
2018-08-09T06:31:17.881Z,66.50
2018-08-09T06:33:46.927Z,66.50
2018-08-09T06:36:15.639Z,66.80
2018-08-09T06:38:44.850Z,66.70
2018-08-09T06:41:13.561Z,66.60
2018-08-09T06:43:42.281Z,66.60
2018-08-09T06:46:11.108Z,66.40
2018-08-09T06:48:39.907Z,66.50
2018-08-09T06:51:08.620Z,66.40
2018-08-09T06:53:37.389Z,66.20
2018-08-09T06:56:06.753Z,66.20
2018-08-09T06:58:36.875Z,66.20
2018-08-09T07:01:05.569Z,65.90
2018-08-09T07:03:34.331Z,65.70
2018-08-09T07:06:03.241Z,65.40
2018-08-09T07:08:32.027Z,65.70
2018-08-09T07:11:00.865Z,65.60
2018-08-09T07:13:29.555Z,65.60
2018-08-09T07:15:58.649Z,65.80
2018-08-09T07:18:27.395Z,65.30
2018-08-09T07:20:56.292Z,65.70
2018-08-09T07:23:25.075Z,65.70
2018-08-09T07:25:53.875Z,65.60
2018-08-09T07:28:22.664Z,65.60
2018-08-09T07:30:51.431Z,65.70
2018-08-09T07:33:20.220Z,65.40
2018-08-09T07:35:48.962Z,66.40
2018-08-09T07:38:17.760Z,65.70
2018-08-09T07:40:46.994Z,64.60
2018-08-09T07:43:15.964Z,65.30
2018-08-09T07:45:45.748Z,65.20
2018-08-09T07:48:14.724Z,65.30
2018-08-09T07:50:43.614Z,65.00
2018-08-09T07:53:12.324Z,65.20
2018-08-09T07:55:41.084Z,64.90
2018-08-09T07:58:09.859Z,64.80
2018-08-09T08:00:38.896Z,64.20
2018-08-09T08:03:07.630Z,64.40
2018-08-09T08:05:36.436Z,64.10
2018-08-09T08:08:05.135Z,64.00
2018-08-09T08:10:33.922Z,64.10
2018-08-09T08:13:02.824Z,63.90
2018-08-09T08:15:31.616Z,64.20
2018-08-09T08:18:00.454Z,63.80
2018-08-09T08:20:29.289Z,63.70
2018-08-09T08:22:58.017Z,63.50
2018-08-09T08:25:26.929Z,63.50
2018-08-09T08:27:55.785Z,63.30
2018-08-09T08:30:24.652Z,63.30
2018-08-09T08:32:53.403Z,63.50
2018-08-09T08:35:22.141Z,63.00
2018-08-09T08:37:50.890Z,62.70
2018-08-09T08:40:19.644Z,62.90
2018-08-09T08:42:48.454Z,62.70
2018-08-09T08:45:17.298Z,62.40
2018-08-09T08:47:46.154Z,62.10
2018-08-09T08:50:14.890Z,61.50
2018-08-09T08:52:43.642Z,61.40
2018-08-09T08:55:12.949Z,60.50
2018-08-09T08:57:41.618Z,59.90
2018-08-09T09:00:11.568Z,59.90
2018-08-09T09:02:40.692Z,59.20
2018-08-09T09:05:11.350Z,59.10
2018-08-09T09:07:40.326Z,59.00
2018-08-09T09:10:10.643Z,58.40
2018-08-09T09:12:39.484Z,57.80
2018-08-09T09:15:11.214Z,58.10
2018-08-09T09:17:40.448Z,57.10
2018-08-09T09:20:11.462Z,56.80
2018-08-09T09:22:40.536Z,56.00
2018-08-09T09:25:09.993Z,56.40
2018-08-09T09:27:38.761Z,56.20
2018-08-09T09:30:09.609Z,55.10
2018-08-09T09:32:38.533Z,55.00
2018-08-09T09:35:07.750Z,55.00
2018-08-09T09:37:36.562Z,54.90
2018-08-09T09:40:06.256Z,54.80
2018-08-09T09:42:35.147Z,53.90
2018-08-09T09:45:04.392Z,53.10
2018-08-09T09:47:33.452Z,52.60
2018-08-09T09:50:02.624Z,53.20
2018-08-09T09:52:31.422Z,51.50
2018-08-09T09:55:00.222Z,52.80
2018-08-09T09:57:36.779Z,53.00
2018-08-09T10:00:06.827Z,52.70
2018-08-09T10:02:36.029Z,51.60
2018-08-09T10:05:04.922Z,50.90
2018-08-09T10:07:33.691Z,50.70
2018-08-09T10:10:02.449Z,50.90
2018-08-09T10:12:31.289Z,50.40
2018-08-09T10:15:00.030Z,48.10
2018-08-09T10:17:28.889Z,49.20
2018-08-09T10:19:57.718Z,49.60
2018-08-09T10:22:26.531Z,48.50
2018-08-09T10:24:55.348Z,48.30
2018-08-09T10:27:24.151Z,48.00
2018-08-09T10:29:53.039Z,47.90
2018-08-09T10:32:22.501Z,48.80
2018-08-09T10:34:51.311Z,49.30
2018-08-09T10:37:20.060Z,47.80
2018-08-09T10:39:48.792Z,48.20
2018-08-09T10:42:17.518Z,46.90
2018-08-09T10:44:46.396Z,46.40
2018-08-09T10:47:15.352Z,46.40
2018-08-09T10:49:44.134Z,46.00
2018-08-09T10:52:12.872Z,46.00
2018-08-09T10:54:41.578Z,46.00
2018-08-09T10:57:10.315Z,43.90
2018-08-09T10:59:39.060Z,44.80
2018-08-09T11:02:07.970Z,44.20
2018-08-09T11:04:36.828Z,44.70
2018-08-09T11:07:05.610Z,43.20
2018-08-09T11:09:34.392Z,42.60
2018-08-09T11:12:03.198Z,42.30
2018-08-09T11:14:32.039Z,42.30
2018-08-09T11:17:00.837Z,42.70
2018-08-09T11:19:29.518Z,42.70
2018-08-09T11:21:58.273Z,41.90
2018-08-09T11:24:27.001Z,41.90
2018-08-09T11:26:55.730Z,42.40
2018-08-09T11:29:24.511Z,40.70
2018-08-09T11:31:53.218Z,41.30
2018-08-09T11:34:22.009Z,41.10
2018-08-09T11:36:50.731Z,41.80
2018-08-09T11:39:19.480Z,42.60
2018-08-09T11:41:48.255Z,43.30
2018-08-09T11:44:17.029Z,44.80
2018-08-09T11:46:45.781Z,45.30
2018-08-09T11:49:14.529Z,45.60
2018-08-09T11:51:43.268Z,46.10
2018-08-09T11:54:12.515Z,46.50
2018-08-09T11:56:41.372Z,46.70
2018-08-09T11:59:10.037Z,46.70
2018-08-09T12:01:38.838Z,46.90
2018-08-09T12:04:07.548Z,46.50
2018-08-09T12:06:36.270Z,47.20
2018-08-09T12:09:07.744Z,47.70
2018-08-09T12:11:36.920Z,47.10
2018-08-09T12:14:06.270Z,47.40
2018-08-09T12:16:35.461Z,47.40
2018-08-09T12:19:04.668Z,46.20
2018-08-09T12:21:33.449Z,46.20
2018-08-09T12:24:02.269Z,44.90
2018-08-09T12:26:32.030Z,45.70
2018-08-09T12:29:00.759Z,44.50
2018-08-09T12:31:29.485Z,44.70
2018-08-09T12:33:58.205Z,45.50
2018-08-09T12:36:27.032Z,45.60
2018-08-09T12:38:55.880Z,45.30
2018-08-09T12:41:24.706Z,45.40
2018-08-09T12:44:04.140Z,44.50
2018-08-09T12:46:34.539Z,43.50
2018-08-09T12:49:03.408Z,43.40
2018-08-09T12:51:32.114Z,41.70
2018-08-09T12:54:01.310Z,41.50
2018-08-09T12:56:30.212Z,42.10
2018-08-09T12:58:59.021Z,42.60
2018-08-09T13:01:27.749Z,42.10
2018-08-09T13:03:56.465Z,42.80
2018-08-09T13:06:25.218Z,42.20
2018-08-09T13:08:54.014Z,42.80
2018-08-09T13:11:23.455Z,41.60
2018-08-09T13:13:52.208Z,42.10
2018-08-09T13:16:20.926Z,41.70
2018-08-09T13:18:49.676Z,42.00
2018-08-09T13:21:18.384Z,42.40
2018-08-09T13:23:47.103Z,42.30
2018-08-09T13:26:15.898Z,42.40
2018-08-09T13:28:44.638Z,42.30
2018-08-09T13:31:13.424Z,41.60
2018-08-09T13:33:42.169Z,41.30
2018-08-09T13:36:10.872Z,41.30
2018-08-09T13:38:39.662Z,41.90
2018-08-09T13:41:08.419Z,41.90
2018-08-09T13:43:37.190Z,42.00
2018-08-09T13:46:06.462Z,41.80
2018-08-09T13:48:35.182Z,41.40
2018-08-09T13:51:03.967Z,41.30
2018-08-09T13:53:32.729Z,42.00
2018-08-09T13:56:01.485Z,41.30
2018-08-09T13:58:30.244Z,41.80
2018-08-09T14:00:58.957Z,42.30
2018-08-09T14:03:27.675Z,42.10
2018-08-09T14:05:56.395Z,42.40
2018-08-09T14:08:25.143Z,41.90
2018-08-09T14:10:53.901Z,42.50
2018-08-09T14:13:22.674Z,41.90
2018-08-09T14:15:51.447Z,42.10
2018-08-09T14:18:20.208Z,41.50
2018-08-09T14:20:48.989Z,41.70
2018-08-09T14:23:17.733Z,41.70
2018-08-09T14:25:46.491Z,40.50
2018-08-09T14:28:15.293Z,40.20
2018-08-09T14:30:44.065Z,39.90
2018-08-09T14:33:12.856Z,39.90
2018-08-09T14:35:41.561Z,39.50
2018-08-09T14:38:10.302Z,40.20
2018-08-09T14:40:39.079Z,40.20
2018-08-09T14:43:07.848Z,40.50
2018-08-09T14:45:36.533Z,40.10
2018-08-09T14:48:05.670Z,41.00
2018-08-09T14:50:34.538Z,40.20
2018-08-09T14:53:03.288Z,39.70
2018-08-09T14:55:32.079Z,40.20
2018-08-09T14:58:00.898Z,39.80
2018-08-09T15:00:29.643Z,40.00
2018-08-09T15:02:58.351Z,40.10
2018-08-09T15:05:27.351Z,40.20
2018-08-09T15:07:56.107Z,40.10
2018-08-09T15:10:24.822Z,40.50
2018-08-09T15:12:53.572Z,40.00
2018-08-09T15:15:22.383Z,40.10
2018-08-09T15:17:51.184Z,39.70
2018-08-09T15:20:19.949Z,39.70
2018-08-09T15:22:48.731Z,43.10
2018-08-09T15:25:17.504Z,41.60
2018-08-09T15:27:46.243Z,42.80
2018-08-09T15:30:18.129Z,43.90
2018-08-09T15:32:47.420Z,42.90
2018-08-09T15:35:16.380Z,42.20
2018-08-09T15:37:45.467Z,42.60
2018-08-09T15:40:14.897Z,43.80
2018-08-09T15:42:43.694Z,42.40
2018-08-09T15:45:13.886Z,42.20
2018-08-09T15:47:42.967Z,40.60
2018-08-09T15:50:17.317Z,40.90
2018-08-09T15:52:46.135Z,39.60
2018-08-09T15:55:15.967Z,40.40
2018-08-09T15:57:44.880Z,40.00
2018-08-09T16:00:15.671Z,40.00
2018-08-09T16:02:44.696Z,39.40
2018-08-09T16:05:13.414Z,39.40
2018-08-09T16:07:42.182Z,40.00
2018-08-09T16:10:13.207Z,39.90
2018-08-09T16:12:42.067Z,39.50
2018-08-09T16:15:14.104Z,39.40
2018-08-09T16:17:43.492Z,40.00
2018-08-09T16:20:12.534Z,40.20
2018-08-09T16:22:42.002Z,41.10
2018-08-09T16:25:12.786Z,41.40
2018-08-09T16:27:41.582Z,40.30
2018-08-09T16:30:21.108Z,40.70
2018-08-09T16:32:49.861Z,39.10
2018-08-09T16:35:18.606Z,38.30
2018-08-09T16:37:47.640Z,38.40
2018-08-09T16:40:22.396Z,37.70
2018-08-09T16:42:51.186Z,38.40
2018-08-09T16:45:21.096Z,39.50
2018-08-09T16:47:50.350Z,39.50
2018-08-09T16:50:20.732Z,39.70
2018-08-09T16:52:50.196Z,39.70
2018-08-09T16:55:19.976Z,40.10
2018-08-09T16:57:48.830Z,39.00
2018-08-09T17:00:21.196Z,39.10
2018-08-09T17:02:50.578Z,39.20
2018-08-09T17:05:20.484Z,39.30
2018-08-09T17:07:49.266Z,38.90
2018-08-09T17:10:19.246Z,38.90
2018-08-09T17:12:48.026Z,39.20
2018-08-09T17:15:21.289Z,38.90
2018-08-09T17:17:50.224Z,40.20
2018-08-09T17:20:21.255Z,39.70
2018-08-09T17:22:50.279Z,39.30
2018-08-09T17:25:19.021Z,39.50
2018-08-09T17:27:48.380Z,39.30
2018-08-09T17:30:20.361Z,38.90
2018-08-09T17:32:49.107Z,39.50
2018-08-09T17:35:18.351Z,39.50
2018-08-09T17:37:47.196Z,39.70
2018-08-09T17:40:19.704Z,39.80
2018-08-09T17:42:49.648Z,40.10
2018-08-09T17:45:19.613Z,39.80
2018-08-09T17:47:48.407Z,39.80
2018-08-09T17:50:17.119Z,40.10
2018-08-09T17:52:45.881Z,41.00
2018-08-09T17:55:15.305Z,42.20
2018-08-09T17:57:44.820Z,41.50
2018-08-09T18:00:30.844Z,40.70
2018-08-09T18:02:59.599Z,41.60
2018-08-09T18:05:28.325Z,41.70
2018-08-09T18:07:58.057Z,41.80
2018-08-09T18:10:29.321Z,41.40
2018-08-09T18:12:58.133Z,41.50
2018-08-09T18:15:28.068Z,41.70
2018-08-09T18:17:57.736Z,42.50
2018-08-09T18:20:28.603Z,42.40
2018-08-09T18:22:57.824Z,42.50
2018-08-09T18:25:27.073Z,42.80
2018-08-09T18:27:55.891Z,43.20
2018-08-09T18:30:25.101Z,43.80
2018-08-09T18:32:53.879Z,43.50
2018-08-09T18:35:22.674Z,43.80
2018-08-09T18:37:51.560Z,44.50
2018-08-09T18:40:22.647Z,44.00
2018-08-09T18:42:51.398Z,44.30
2018-08-09T18:45:20.508Z,44.20
2018-08-09T18:47:49.232Z,44.20
2018-08-09T18:50:20.490Z,44.10
2018-08-09T18:52:49.246Z,44.30
2018-08-09T18:55:18.746Z,44.60
2018-08-09T18:57:47.540Z,44.50
2018-08-09T19:00:20.898Z,44.50
2018-08-09T19:02:50.090Z,44.70
2018-08-09T19:05:18.806Z,45.20
2018-08-09T19:07:47.622Z,45.20
2018-08-09T19:10:17.836Z,45.50
2018-08-09T19:12:46.598Z,45.30
2018-08-09T19:15:15.304Z,45.10
2018-08-09T19:17:44.201Z,45.10
2018-08-09T19:20:30.792Z,45.10
2018-08-09T19:22:59.805Z,45.30
2018-08-09T19:25:28.534Z,45.40
2018-08-09T19:27:57.342Z,45.40
2018-08-09T19:30:27.578Z,45.80
2018-08-09T19:32:56.306Z,46.30
2018-08-09T19:35:25.134Z,45.90
2018-08-09T19:37:53.898Z,46.30
2018-08-09T19:40:26.263Z,46.30
2018-08-09T19:42:55.110Z,46.50
2018-08-09T19:45:23.850Z,46.60
2018-08-09T19:47:52.669Z,46.80
2018-08-09T19:50:22.776Z,46.90
2018-08-09T19:52:51.538Z,47.50
2018-08-09T19:55:24.687Z,46.70
2018-08-09T19:57:53.678Z,46.80
2018-08-09T20:00:26.003Z,46.70
2018-08-09T20:02:54.781Z,46.50
2018-08-09T20:05:23.978Z,46.70
2018-08-09T20:07:52.741Z,47.00
2018-08-09T20:10:21.511Z,47.10
2018-08-09T20:12:50.387Z,46.20
2018-08-09T20:15:20.483Z,46.30
2018-08-09T20:17:49.286Z,46.90
2018-08-09T20:20:19.706Z,47.00
2018-08-09T20:22:48.495Z,48.40
2018-08-09T20:25:17.191Z,48.40
2018-08-09T20:27:46.753Z,49.00
2018-08-09T20:30:16.177Z,49.60
2018-08-09T20:32:45.618Z,50.30
2018-08-09T20:35:18.741Z,51.70
2018-08-09T20:37:47.933Z,51.80
2018-08-09T20:40:17.285Z,52.20
2018-08-09T20:42:46.917Z,52.20
2018-08-09T20:45:17.010Z,52.20
2018-08-09T20:47:45.791Z,52.30
2018-08-09T20:50:16.676Z,52.60
2018-08-09T20:52:46.372Z,53.00
2018-08-09T20:55:15.162Z,53.00
2018-08-09T20:57:44.742Z,53.10
2018-08-09T21:00:16.926Z,53.10
2018-08-09T21:02:46.744Z,53.30
2018-08-09T21:05:22.770Z,56.60
2018-08-09T21:07:52.589Z,62.40
2018-08-09T21:10:21.480Z,62.70
2018-08-09T21:12:50.243Z,66.80
2018-08-09T21:15:19.846Z,67.60
2018-08-09T21:17:48.725Z,67.40
2018-08-09T21:20:17.446Z,70.70
2018-08-09T21:22:47.296Z,83.80
2018-08-09T21:25:16.038Z,87.40
2018-08-09T21:27:45.146Z,85.10
2018-08-09T21:30:19.864Z,90.60
2018-08-09T21:32:49.077Z,91.10
2018-08-09T21:35:17.790Z,89.80
2018-08-09T21:37:46.866Z,82.70
2018-08-09T21:40:15.947Z,84.80
2018-08-09T21:42:44.671Z,92.00
2018-08-09T21:45:15.094Z,93.00
2018-08-09T21:47:43.877Z,92.00
2018-08-09T21:50:15.083Z,99.50
2018-08-09T21:52:43.805Z,99.90
2018-08-09T21:55:13.055Z,98.30
2018-08-09T21:57:42.810Z,97.50
2018-08-09T22:00:23.425Z,97.60
2018-08-09T22:02:52.159Z,97.40
2018-08-09T22:05:26.518Z,92.50
2018-08-09T22:08:00.765Z,93.00
2018-08-09T22:10:34.924Z,92.60
2018-08-09T22:13:09.169Z,93.50
2018-08-09T22:15:43.472Z,94.80
2018-08-09T22:18:17.757Z,92.80
2018-08-09T22:20:51.842Z,93.70
2018-08-09T22:23:20.711Z,92.60
2018-08-09T22:25:49.631Z,91.70
2018-08-09T22:28:18.363Z,90.50
2018-08-09T22:30:47.081Z,90.10
2018-08-09T22:33:15.822Z,90.00
2018-08-09T22:35:44.539Z,90.40
2018-08-09T22:38:13.266Z,90.60
2018-08-09T22:40:41.967Z,92.00
2018-08-09T22:43:10.933Z,92.40
2018-08-09T22:45:39.668Z,91.60
2018-08-09T22:48:08.373Z,90.20
2018-08-09T22:50:37.111Z,91.10
2018-08-09T22:53:06.065Z,91.30
2018-08-09T22:55:35.163Z,91.10
2018-08-09T22:58:03.969Z,91.50
2018-08-09T23:00:32.730Z,91.90
2018-08-09T23:03:01.432Z,92.20
2018-08-09T23:05:30.148Z,91.20
2018-08-09T23:07:58.849Z,89.20
2018-08-09T23:10:27.594Z,88.90
2018-08-09T23:12:56.303Z,87.90
2018-08-09T23:15:25.002Z,87.50
2018-08-09T23:17:53.782Z,87.70
2018-08-09T23:20:22.577Z,87.50
2018-08-09T23:22:51.628Z,87.80
2018-08-09T23:25:20.384Z,87.70
2018-08-09T23:27:49.151Z,88.00
2018-08-09T23:30:17.854Z,87.60
2018-08-09T23:32:46.575Z,87.70
2018-08-09T23:35:15.300Z,87.80
2018-08-09T23:37:44.008Z,87.70
2018-08-09T23:40:12.744Z,87.00
2018-08-09T23:42:41.441Z,88.10
2018-08-09T23:45:10.543Z,87.80
2018-08-09T23:47:40.197Z,89.10
2018-08-09T23:50:10.795Z,88.50
2018-08-09T23:52:40.135Z,86.70
2018-08-09T23:55:10.996Z,86.40
2018-08-09T23:57:40.066Z,85.80
